Time;durP1;ratioP1;P1;durP2;ratioP2;P2;SDS_P1;SDS_P2;PMS_P1;PMS_P2;Temp;Humidity;BMP_temperature;BMP_pressure;BME280_temperature;BME280_humidity;BME280_pressure;Samples;Min_cycle;Max_cycle;Signal;HPM_P1;HPM_P2
2021/08/03 00:01:10;;;;;;;9.52;3.90;;;23.90;63.90;;;;;;5057012;28;20036;-46
2021/08/03 00:03:38;;;;;;;6.32;3.53;;;23.90;63.90;;;;;;5057002;28;20036;-41
2021/08/03 00:06:09;;;;;;;5.60;3.55;;;23.90;63.90;;;;;;5056519;28;20109;-42
2021/08/03 00:08:39;;;;;;;4.57;3.30;;;23.90;63.70;;;;;;5056934;28;20033;-42
2021/08/03 00:11:06;;;;;;;4.80;3.40;;;23.90;64.30;;;;;;5056712;28;20025;-41
2021/08/03 00:13:36;;;;;;;10.88;3.90;;;23.80;63.60;;;;;;5056155;28;20037;-46
2021/08/03 00:16:08;;;;;;;7.57;3.95;;;23.80;63.50;;;;;;5056367;28;20025;-47
2021/08/03 00:18:36;;;;;;;5.20;3.50;;;23.80;63.40;;;;;;5056621;28;20325;-45
2021/08/03 00:21:02;;;;;;;4.35;2.92;;;23.80;63.70;;;;;;5056145;28;20086;-45
2021/08/03 00:23:28;;;;;;;6.22;3.63;;;23.80;63.80;;;;;;5056548;28;20317;-45
2021/08/03 00:25:54;;;;;;;4.57;3.25;;;23.80;63.50;;;;;;5056449;28;20029;-41
2021/08/03 00:28:20;;;;;;;6.55;3.78;;;23.80;63.70;;;;;;5056452;28;20482;-42
2021/08/03 00:30:47;;;;;;;7.63;3.60;;;23.80;64.20;;;;;;5056228;28;20024;-41
2021/08/03 00:33:13;;;;;;;5.15;3.45;;;23.80;63.70;;;;;;5055859;28;20376;-42
2021/08/03 00:35:39;;;;;;;7.60;3.28;;;23.80;63.60;;;;;;5056092;28;20019;-48
2021/08/03 00:38:06;;;;;;;8.10;3.53;;;23.80;63.70;;;;;;5056162;28;20347;-46
2021/08/03 00:40:35;;;;;;;7.47;4.20;;;23.80;63.80;;;;;;5055837;28;20068;-44
2021/08/03 00:43:00;;;;;;;6.70;3.40;;;23.80;63.60;;;;;;5056019;28;20037;-47
2021/08/03 00:45:26;;;;;;;5.30;2.70;;;23.80;63.40;;;;;;5055854;28;20020;-47
2021/08/03 00:47:52;;;;;;;4.30;2.88;;;23.80;63.30;;;;;;5056160;28;20086;-43
2021/08/03 00:50:17;;;;;;;5.13;2.80;;;23.70;63.00;;;;;;5055722;28;20013;-42
2021/08/03 00:52:43;;;;;;;3.15;2.63;;;23.70;62.70;;;;;;5055933;28;20388;-45
2021/08/03 00:55:10;;;;;;;4.20;2.55;;;23.60;62.40;;;;;;5055969;28;20116;-42
2021/08/03 00:57:38;;;;;;;2.65;2.25;;;23.60;62.00;;;;;;5055613;28;20112;-42
2021/08/03 01:00:05;;;;;;;6.18;2.33;;;23.50;61.90;;;;;;5055674;28;20059;-42
2021/08/03 01:02:31;;;;;;;2.75;2.30;;;23.50;61.80;;;;;;5055787;28;20072;-45
2021/08/03 01:04:56;;;;;;;3.58;2.28;;;23.40;61.80;;;;;;5055582;28;20413;-41
2021/08/03 01:07:31;;;;;;;6.45;2.33;;;23.40;62.00;;;;;;5055543;28;20082;-41
2021/08/03 01:10:31;;;;;;;3.70;2.00;;;23.40;62.70;;;;;;5055489;28;20432;-41
2021/08/03 01:13:03;;;;;;;2.63;2.03;;;23.40;62.30;;;;;;5055724;28;20075;-42
2021/08/03 01:15:53;;;;;;;2.13;1.98;;;23.30;62.20;;;;;;5055698;28;20025;-43
2021/08/03 01:18:49;;;;;;;1.67;1.57;;;23.30;62.00;;;;;;5055521;28;20021;-47
2021/08/03 01:21:43;;;;;;;5.22;1.90;;;23.30;61.90;;;;;;5055710;28;20025;-45
2021/08/03 01:24:15;;;;;;;4.25;1.88;;;23.30;61.70;;;;;;5055576;28;20029;-42
2021/08/03 01:27:05;;;;;;;1.63;1.52;;;23.20;61.40;;;;;;5055308;28;20032;-41
2021/08/03 01:29:32;;;;;;;3.55;1.70;;;23.20;61.20;;;;;;5055526;28;20324;-44
2021/08/03 01:32:07;;;;;;;2.03;1.80;;;23.20;61.30;;;;;;5055320;28;20037;-47
2021/08/03 01:34:36;;;;;;;2.10;1.83;;;23.20;61.50;;;;;;5055347;28;20025;-41
2021/08/03 01:37:04;;;;;;;2.65;2.00;;;23.10;61.70;;;;;;5055333;28;20317;-47
2021/08/03 01:39:40;;;;;;;2.67;1.70;;;23.10;62.00;;;;;;5055004;28;20052;-42
2021/08/03 01:42:07;;;;;;;3.58;2.08;;;23.00;62.20;;;;;;5055287;28;20033;-47
2021/08/03 01:44:35;;;;;;;3.05;1.80;;;23.00;62.10;;;;;;5055140;28;20033;-42
2021/08/03 01:47:03;;;;;;;2.15;1.90;;;23.00;62.50;;;;;;5055238;28;20041;-46
2021/08/03 01:49:34;;;;;;;3.63;2.00;;;23.00;62.70;;;;;;5055273;28;20036;-42
2021/08/03 01:52:02;;;;;;;3.85;1.88;;;23.00;62.40;;;;;;5055148;28;20077;-46
2021/08/03 01:54:29;;;;;;;2.45;1.73;;;22.90;62.30;;;;;;5058015;28;20028;-41
2021/08/03 01:56:56;;;;;;;5.28;2.03;;;22.90;62.50;;;;;;5059125;28;20413;-45
2021/08/03 01:59:22;;;;;;;2.58;1.77;;;22.90;62.40;;;;;;5058685;28;20060;-46
2021/08/03 02:01:51;;;;;;;2.88;1.98;;;22.90;62.80;;;;;;5059105;28;20082;-42
2021/08/03 02:04:19;;;;;;;2.50;1.75;;;22.90;62.70;;;;;;5058879;28;20074;-42
2021/08/03 02:06:46;;;;;;;3.88;2.00;;;22.90;62.30;;;;;;5058971;28;20421;-45
2021/08/03 02:09:14;;;;;;;2.20;1.80;;;22.90;61.90;;;;;;5058646;28;20117;-45
2021/08/03 02:11:40;;;;;;;2.85;2.03;;;22.80;61.80;;;;;;5059060;28;20360;-46
2021/08/03 02:14:06;;;;;;;6.28;1.85;;;22.80;62.00;;;;;;5058998;28;20021;-47
2021/08/03 02:16:33;;;;;;;4.20;1.80;;;22.80;62.20;;;;;;5058654;28;20033;-49
2021/08/03 02:18:59;;;;;;;3.63;2.05;;;22.80;62.50;;;;;;5058969;28;20101;-42
2021/08/03 02:21:26;;;;;;;2.42;2.00;;;22.80;62.70;;;;;;5058384;28;20037;-47
2021/08/03 02:23:51;;;;;;;3.03;1.90;;;22.80;62.60;;;;;;5058937;28;20045;-42
2021/08/03 02:26:18;;;;;;;2.08;1.80;;;22.80;62.70;;;;;;5057415;28;20092;-43
2021/08/03 02:28:44;;;;;;;1.70;1.60;;;22.80;62.70;;;;;;5058513;28;20025;-44
2021/08/03 02:31:23;;;;;;;2.28;1.80;;;22.70;62.80;;;;;;5058652;28;20155;-43
2021/08/03 02:34:02;;;;;;;2.88;2.00;;;22.70;62.90;;;;;;5058764;28;20032;-43
2021/08/03 02:36:31;;;;;;;3.95;1.95;;;22.80;62.90;;;;;;5058609;28;20055;-49
2021/08/03 02:39:01;;;;;;;4.60;1.90;;;22.70;63.00;;;;;;5058255;28;20122;-43
2021/08/03 02:41:30;;;;;;;2.17;1.63;;;22.70;62.90;;;;;;5058547;28;20058;-43
2021/08/03 02:43:56;;;;;;;3.30;2.00;;;22.70;63.00;;;;;;5058594;28;20045;-45
2021/08/03 02:46:24;;;;;;;3.58;1.38;;;22.70;62.90;;;;;;5058383;28;20353;-48
2021/08/03 02:49:08;;;;;;;3.63;1.50;;;22.70;62.90;;;;;;5058448;28;20539;-42
2021/08/03 02:51:37;;;;;;;3.80;1.63;;;22.70;62.80;;;;;;5057963;28;20033;-47
2021/08/03 02:54:30;;;;;;;2.10;1.73;;;22.70;62.90;;;;;;5058058;28;20079;-47
2021/08/03 02:56:57;;;;;;;3.65;2.92;;;22.70;63.00;;;;;;5057525;28;20056;-48
2021/08/03 02:59:26;;;;;;;2.78;2.05;;;22.70;63.40;;;;;;5057541;28;20029;-42
2021/08/03 03:01:54;;;;;;;3.53;1.63;;;22.70;63.20;;;;;;5057873;28;20025;-50
2021/08/03 03:04:39;;;;;;;1.98;1.80;;;22.70;63.20;;;;;;5056938;28;20052;-47
2021/08/03 03:07:11;;;;;;;2.53;1.52;;;22.70;63.50;;;;;;5058028;28;20305;-43
2021/08/03 03:09:40;;;;;;;3.83;1.90;;;22.70;64.00;;;;;;5058021;28;20024;-48
2021/08/03 03:12:07;;;;;;;5.38;2.05;;;22.70;65.00;;;;;;5056462;28;20033;-42
2021/08/03 03:14:36;;;;;;;2.15;1.90;;;22.70;65.00;;;;;;5057613;28;20351;-43
2021/08/03 03:17:03;;;;;;;2.60;2.08;;;22.60;65.00;;;;;;5057605;28;20041;-45
2021/08/03 03:19:33;;;;;;;1.70;1.60;;;22.60;65.60;;;;;;5057525;28;20039;-43
2021/08/03 03:22:03;;;;;;;2.08;1.88;;;22.50;65.80;;;;;;5057886;28;20317;-42
2021/08/03 03:24:34;;;;;;;2.92;1.95;;;22.50;65.80;;;;;;5057879;28;20053;-42
2021/08/03 03:27:00;;;;;;;2.25;1.90;;;22.40;65.30;;;;;;5057292;28;20111;-45
2021/08/03 03:29:27;;;;;;;2.55;1.95;;;22.40;66.20;;;;;;5057277;28;20079;-42
2021/08/03 03:31:57;;;;;;;2.60;1.80;;;22.30;66.50;;;;;;5057277;28;20025;-46
2021/08/03 03:34:25;;;;;;;2.28;1.73;;;22.30;66.20;;;;;;5057135;28;20025;-48
2021/08/03 03:36:52;;;;;;;2.08;1.60;;;22.30;66.30;;;;;;5057475;28;20056;-44
2021/08/03 03:39:19;;;;;;;1.88;1.60;;;22.20;66.40;;;;;;5056724;28;20049;-48
2021/08/03 03:41:52;;;;;;;2.38;1.90;;;22.20;66.00;;;;;;5057010;28;20029;-45
2021/08/03 03:44:18;;;;;;;2.15;1.92;;;22.30;66.20;;;;;;5057363;28;20086;-45
2021/08/03 03:46:57;;;;;;;2.28;1.77;;;22.30;66.20;;;;;;5057132;28;20032;-46
2021/08/03 03:49:32;;;;;;;2.00;1.80;;;22.30;65.80;;;;;;5056746;28;20044;-46
2021/08/03 03:52:01;;;;;;;2.97;2.15;;;22.30;65.70;;;;;;5056272;28;20486;-42
2021/08/03 03:54:30;;;;;;;2.15;1.80;;;22.30;65.70;;;;;;5056765;28;20029;-43
2021/08/03 03:57:01;;;;;;;2.50;1.92;;;22.30;65.20;;;;;;5056750;28;20061;-47
2021/08/03 03:59:26;;;;;;;2.10;1.90;;;22.40;65.40;;;;;;5056373;28;20021;-46
2021/08/03 04:01:57;;;;;;;3.63;2.10;;;22.30;65.50;;;;;;5056560;28;20028;-44
2021/08/03 04:04:24;;;;;;;1.80;1.70;;;22.30;65.40;;;;;;5056273;28;20032;-42
2021/08/03 04:06:51;;;;;;;3.90;2.03;;;22.40;65.60;;;;;;5056485;28;20321;-45
2021/08/03 04:09:25;;;;;;;2.50;2.00;;;22.40;65.30;;;;;;5056156;28;20108;-45
2021/08/03 04:11:52;;;;;;;2.10;1.90;;;22.50;65.20;;;;;;5056745;28;20325;-44
2021/08/03 04:14:24;;;;;;;1.95;1.80;;;22.50;65.10;;;;;;5056488;28;20103;-48
2021/08/03 04:16:54;;;;;;;2.45;1.92;;;22.50;65.50;;;;;;5056123;28;20377;-46
2021/08/03 04:19:21;;;;;;;5.38;1.98;;;22.50;65.10;;;;;;5056264;28;20317;-46
2021/08/03 04:21:46;;;;;;;4.10;1.83;;;22.50;65.30;;;;;;5056473;28;20045;-45
2021/08/03 04:24:16;;;;;;;3.30;1.90;;;22.50;65.50;;;;;;5056322;28;20021;-45
2021/08/03 04:26:43;;;;;;;3.03;2.20;;;22.60;65.60;;;;;;5055958;28;20027;-43
2021/08/03 04:29:08;;;;;;;2.42;1.52;;;22.60;65.80;;;;;;5055844;28;20032;-45
2021/08/03 04:31:35;;;;;;;1.95;1.83;;;22.60;65.50;;;;;;5056111;28;20025;-43
2021/08/03 04:34:00;;;;;;;5.20;1.85;;;22.60;65.30;;;;;;5056351;28;20056;-43
2021/08/03 04:36:27;;;;;;;3.13;1.95;;;22.60;65.10;;;;;;5055802;28;20064;-46
2021/08/03 04:38:53;;;;;;;2.58;1.90;;;22.70;65.00;;;;;;5055629;28;20053;-42
2021/08/03 04:41:18;;;;;;;2.78;2.03;;;22.80;64.80;;;;;;5055990;28;20317;-47
2021/08/03 04:43:44;;;;;;;2.75;1.63;;;22.70;64.50;;;;;;5056027;28;20048;-48
2021/08/03 04:46:11;;;;;;;4.15;2.00;;;22.80;64.30;;;;;;5055748;28;20025;-43
2021/08/03 04:48:38;;;;;;;2.50;2.10;;;22.80;64.20;;;;;;5056161;28;20041;-49
2021/08/03 04:51:04;;;;;;;1.70;1.60;;;22.90;64.40;;;;;;5055711;28;20072;-49
2021/08/03 04:53:30;;;;;;;2.55;1.80;;;23.00;64.50;;;;;;5055863;28;20041;-46
2021/08/03 04:55:55;;;;;;;2.13;1.90;;;23.10;64.20;;;;;;5055677;28;20054;-45
2021/08/03 04:58:21;;;;;;;2.65;2.03;;;23.10;64.10;;;;;;5055610;28;20094;-46
2021/08/03 05:00:47;;;;;;;5.50;2.00;;;23.20;63.60;;;;;;5055813;28;20482;-47
2021/08/03 05:03:14;;;;;;;6.75;4.22;;;23.20;63.20;;;;;;5055713;28;20471;-44
2021/08/03 05:05:40;;;;;;;8.48;2.40;;;23.30;63.40;;;;;;5055856;28;20302;-47
2021/08/03 05:08:06;;;;;;;3.13;2.05;;;23.30;63.40;;;;;;5055384;28;20405;-44
2021/08/03 05:10:32;;;;;;;2.75;2.05;;;23.40;62.90;;;;;;5055445;28;20025;-46
2021/08/03 05:12:59;;;;;;;14.10;2.97;;;23.40;62.50;;;;;;5054992;28;20033;-49
2021/08/03 05:15:25;;;;;;;2.80;1.90;;;23.50;62.20;;;;;;5055249;28;20136;-42
2021/08/03 05:17:51;;;;;;;3.75;2.03;;;23.50;62.50;;;;;;5055307;28;20417;-42
2021/08/03 05:20:18;;;;;;;2.80;2.13;;;23.50;62.60;;;;;;5055305;28;20112;-43
2021/08/03 05:22:45;;;;;;;3.40;2.30;;;23.60;62.60;;;;;;5055427;28;20040;-42
2021/08/03 05:25:11;;;;;;;1.95;1.83;;;23.60;62.40;;;;;;5055062;28;20543;-42
2021/08/03 05:27:37;;;;;;;5.43;2.10;;;23.60;62.60;;;;;;5055246;28;20041;-42
2021/08/03 05:30:04;;;;;;;4.95;2.03;;;23.70;61.70;;;;;;5059617;28;20036;-42
2021/08/03 05:32:30;;;;;;;2.03;1.75;;;23.70;62.00;;;;;;5059400;28;20025;-42
2021/08/03 05:34:55;;;;;;;6.10;2.50;;;23.80;61.70;;;;;;5059493;28;20429;-48
2021/08/03 05:37:21;;;;;;;3.60;2.58;;;23.80;61.50;;;;;;5059438;28;20428;-44
2021/08/03 05:39:47;;;;;;;2.40;2.20;;;23.80;61.80;;;;;;5058762;28;20083;-43
2021/08/03 05:42:12;;;;;;;7.00;2.85;;;23.80;61.20;;;;;;5059125;28;20078;-46
2021/08/03 05:44:38;;;;;;;3.75;2.13;;;23.70;61.70;;;;;;5059198;28;20317;-46
2021/08/03 05:47:04;;;;;;;3.63;2.30;;;23.80;61.40;;;;;;5058570;28;20033;-44
2021/08/03 05:49:29;;;;;;;5.32;2.50;;;23.80;61.50;;;;;;5058711;28;20021;-42
2021/08/03 05:51:55;;;;;;;3.63;2.15;;;23.80;61.10;;;;;;5058971;28;20032;-46
2021/08/03 05:54:22;;;;;;;5.82;2.15;;;23.80;61.00;;;;;;5058730;28;20060;-47
2021/08/03 05:56:48;;;;;;;2.20;2.00;;;23.80;61.10;;;;;;5058692;28;20372;-44
2021/08/03 05:59:13;;;;;;;2.95;2.53;;;23.80;61.80;;;;;;5058332;28;20028;-44
2021/08/03 06:01:39;;;;;;;5.40;2.50;;;23.90;61.30;;;;;;5058578;28;20058;-45
2021/08/03 06:04:05;;;;;;;2.70;1.92;;;23.90;61.30;;;;;;5058281;28;20388;-44
2021/08/03 06:06:40;;;;;;;2.95;2.10;;;23.90;60.40;;;;;;5058352;28;20040;-49
2021/08/03 06:09:11;;;;;;;7.03;2.40;;;24.00;60.10;;;;;;5058961;28;20401;-42
2021/08/03 06:12:03;;;;;;;3.35;2.30;;;24.00;60.40;;;;;;5058903;28;20025;-46
2021/08/03 06:14:39;;;;;;;4.50;2.30;;;24.10;60.60;;;;;;5058172;28;20033;-45
2021/08/03 06:17:07;;;;;;;2.60;2.13;;;24.10;60.20;;;;;;5058306;28;20412;-45
2021/08/03 06:19:50;;;;;;;3.60;2.65;;;24.10;60.30;;;;;;5058032;28;20074;-44
2021/08/03 06:22:17;;;;;;;2.20;2.00;;;24.20;60.50;;;;;;5057221;28;20029;-43
2021/08/03 06:24:45;;;;;;;3.40;2.17;;;24.20;59.60;;;;;;5058364;28;20029;-42
2021/08/03 06:27:16;;;;;;;5.28;2.38;;;24.20;59.20;;;;;;5058031;28;20044;-45
2021/08/03 06:29:43;;;;;;;3.42;2.35;;;24.20;59.00;;;;;;5058245;28;20099;-41
2021/08/03 06:32:10;;;;;;;6.18;2.58;;;24.20;59.10;;;;;;5058100;28;20033;-42
2021/08/03 06:34:44;;;;;;;3.63;2.20;;;24.20;59.40;;;;;;5057935;28;20079;-48
2021/08/03 06:37:11;;;;;;;3.80;2.10;;;24.20;59.60;;;;;;5058219;28;20037;-46
2021/08/03 06:39:37;;;;;;;3.63;2.28;;;24.20;59.40;;;;;;5057462;28;20053;-44
2021/08/03 06:42:27;;;;;;;2.55;2.20;;;24.20;59.30;;;;;;5058113;28;20135;-43
2021/08/03 06:44:57;;;;;;;2.30;2.03;;;24.20;58.90;;;;;;5057821;28;20079;-42
2021/08/03 06:47:26;;;;;;;3.93;2.77;;;24.10;59.30;;;;;;5057725;28;20426;-47
2021/08/03 06:49:53;;;;;;;2.40;2.00;;;24.10;59.10;;;;;;5057742;28;20043;-51
2021/08/03 06:52:20;;;;;;;3.05;2.30;;;24.20;58.90;;;;;;5057925;28;20112;-46
2021/08/03 06:54:53;;;;;;;3.15;2.33;;;24.20;58.60;;;;;;5057677;28;20100;-41
2021/08/03 06:57:22;;;;;;;3.22;2.45;;;24.30;58.30;;;;;;5058073;28;20029;-42
2021/08/03 06:59:54;;;;;;;2.67;2.22;;;24.30;58.50;;;;;;5057468;28;20033;-42
2021/08/03 07:02:28;;;;;;;2.30;2.10;;;24.40;58.20;;;;;;5057840;28;20037;-45
2021/08/03 07:04:56;;;;;;;7.55;2.47;;;24.50;58.30;;;;;;5057439;28;20112;-47
2021/08/03 07:07:22;;;;;;;2.55;2.20;;;24.50;56.70;;;;;;5057492;28;20033;-46
2021/08/03 07:09:49;;;;;;;3.85;2.42;;;24.60;56.90;;;;;;5057569;28;20024;-43
2021/08/03 07:12:15;;;;;;;2.40;2.20;;;24.60;56.90;;;;;;5057453;28;20037;-44
2021/08/03 07:14:41;;;;;;;19.33;2.85;;;24.60;56.40;;;;;;5057164;28;20036;-43
2021/08/03 07:17:11;;;;;;;2.50;2.10;;;24.60;56.30;;;;;;5057235;28;20040;-37
2021/08/03 07:19:38;;;;;;;3.83;2.80;;;24.70;56.70;;;;;;5056819;28;20029;-37
2021/08/03 07:22:04;;;;;;;3.08;2.42;;;24.70;57.40;;;;;;5057490;28;20037;-37
2021/08/03 07:24:31;;;;;;;5.20;2.50;;;24.80;57.30;;;;;;5057281;28;20025;-50
2021/08/03 07:26:57;;;;;;;2.80;2.30;;;24.90;56.80;;;;;;5057322;28;20044;-38
2021/08/03 07:29:24;;;;;;;3.30;2.20;;;24.90;55.90;;;;;;5056781;28;20143;-50
2021/08/03 07:31:50;;;;;;;2.10;1.90;;;25.00;56.20;;;;;;5056936;28;20021;-37
2021/08/03 07:34:16;;;;;;;3.97;2.33;;;25.00;56.10;;;;;;5056977;28;20025;-49
2021/08/03 07:36:42;;;;;;;2.70;2.20;;;25.00;55.90;;;;;;5057092;28;20031;-37
2021/08/03 07:39:08;;;;;;;2.75;2.42;;;25.10;56.30;;;;;;5056670;28;20345;-49
2021/08/03 07:41:35;;;;;;;2.88;2.42;;;25.10;56.40;;;;;;5057147;28;20329;-51
2021/08/03 07:44:01;;;;;;;3.40;2.30;;;25.20;55.90;;;;;;5056789;28;20041;-38
2021/08/03 07:46:29;;;;;;;2.17;1.98;;;25.20;55.10;;;;;;5056793;28;20417;-37
2021/08/03 07:48:56;;;;;;;3.55;2.22;;;25.20;54.60;;;;;;5057279;28;20029;-49
2021/08/03 07:51:21;;;;;;;2.92;2.20;;;25.20;54.90;;;;;;5055922;28;20049;-49
2021/08/03 07:53:48;;;;;;;6.55;2.47;;;25.20;55.20;;;;;;5057117;28;20159;-48
2021/08/03 07:56:14;;;;;;;3.97;2.50;;;25.20;55.60;;;;;;5056957;28;20033;-48
2021/08/03 07:58:41;;;;;;;3.75;2.25;;;25.20;55.60;;;;;;5056957;28;20033;-48
2021/08/03 08:01:07;;;;;;;6.35;3.00;;;25.20;55.10;;;;;;5056827;28;20312;-48
2021/08/03 08:03:34;;;;;;;3.35;2.53;;;25.20;55.20;;;;;;5056533;28;20102;-37
2021/08/03 08:06:01;;;;;;;3.47;2.60;;;25.30;55.70;;;;;;5052687;28;20025;-52
2021/08/03 08:08:28;;;;;;;4.75;2.50;;;25.30;55.60;;;;;;5056611;28;20060;-37
2021/08/03 08:10:53;;;;;;;2.47;2.28;;;25.40;55.60;;;;;;5055840;28;20033;-49
2021/08/03 08:13:19;;;;;;;3.92;2.40;;;25.40;54.90;;;;;;5055760;28;20082;-37
2021/08/03 08:15:45;;;;;;;4.68;2.33;;;25.50;54.10;;;;;;5055734;28;20022;-49
2021/08/03 08:18:11;;;;;;;3.95;2.42;;;25.50;54.30;;;;;;5056031;28;20280;-37
2021/08/03 08:20:38;;;;;;;3.45;2.75;;;25.50;53.80;;;;;;5055922;28;20033;-51
2021/08/03 08:23:05;;;;;;;4.68;2.85;;;25.50;54.50;;;;;;5056382;28;20036;-37
2021/08/03 08:25:30;;;;;;;3.83;2.53;;;25.60;54.00;;;;;;5056074;28;20031;-37
2021/08/03 08:27:56;;;;;;;3.38;2.70;;;25.60;53.80;;;;;;5054889;28;20290;-38
2021/08/03 08:30:22;;;;;;;3.80;2.22;;;25.70;53.50;;;;;;5055945;28;20024;-51
2021/08/03 08:32:48;;;;;;;5.78;2.20;;;25.70;54.10;;;;;;5055758;28;20040;-37
2021/08/03 08:35:14;;;;;;;4.15;2.70;;;25.70;54.50;;;;;;5055178;28;20051;-49
2021/08/03 08:37:39;;;;;;;6.72;2.70;;;25.70;54.60;;;;;;5055860;28;20033;-48
2021/08/03 08:40:07;;;;;;;4.78;2.75;;;25.70;54.60;;;;;;5055155;28;20340;-48
2021/08/03 08:42:33;;;;;;;3.58;3.10;;;25.80;54.40;;;;;;5055795;28;20416;-37
2021/08/03 08:45:00;;;;;;;6.03;3.67;;;25.90;54.40;;;;;;5055453;28;20074;-37
2021/08/03 08:47:27;;;;;;;5.28;2.65;;;25.90;54.20;;;;;;5055092;28;20033;-37
2021/08/03 08:49:54;;;;;;;6.35;4.43;;;26.00;54.00;;;;;;5055495;28;20278;-37
2021/08/03 08:52:20;;;;;;;8.95;5.28;;;26.00;53.90;;;;;;5055535;28;20036;-37
2021/08/03 08:54:46;;;;;;;6.47;4.63;;;26.10;54.00;;;;;;5054140;28;20025;-52
2021/08/03 08:57:12;;;;;;;4.88;3.15;;;26.20;53.90;;;;;;5054836;28;20417;-37
2021/08/03 08:59:37;;;;;;;3.30;2.55;;;26.20;53.50;;;;;;5055461;28;20040;-37
2021/08/03 09:02:04;;;;;;;4.30;3.05;;;26.30;53.10;;;;;;5054815;28;20039;-37
2021/08/03 09:04:30;;;;;;;5.07;2.85;;;26.30;53.10;;;;;;5055326;28;20285;-38
2021/08/03 09:07:09;;;;;;;3.17;2.30;;;26.30;53.40;;;;;;5054404;28;20431;-46
2021/08/03 09:09:43;;;;;;;4.35;2.63;;;26.40;52.60;;;;;;5054923;28;20033;-37
2021/08/03 09:12:10;;;;;;;2.67;2.38;;;26.30;52.50;;;;;;5055330;28;20044;-51
2021/08/03 09:14:38;;;;;;;7.18;3.53;;;26.30;52.60;;;;;;5055125;28;20167;-49
2021/08/03 09:17:05;;;;;;;4.20;3.55;;;26.40;52.60;;;;;;5055050;28;20037;-48
2021/08/03 09:19:41;;;;;;;2.92;2.42;;;26.40;52.50;;;;;;5054839;28;20460;-37
2021/08/03 09:22:16;;;;;;;3.15;2.30;;;26.40;51.50;;;;;;5054946;28;20053;-49
2021/08/03 09:24:44;;;;;;;7.60;2.15;;;26.40;51.80;;;;;;5055557;28;20044;-51
2021/08/03 09:27:31;;;;;;;2.95;2.20;;;26.40;52.40;;;;;;5053886;28;20321;-47
2021/08/03 09:29:57;;;;;;;5.57;2.78;;;26.40;52.20;;;;;;5049240;28;20037;-37
2021/08/03 09:32:34;;;;;;;10.80;5.38;;;26.40;52.60;;;;;;5057112;28;20155;-47
2021/08/03 09:35:11;;;;;;;3.05;2.65;;;26.50;52.50;;;;;;5055315;28;20036;-37
2021/08/03 09:37:37;;;;;;;3.67;2.75;;;26.50;52.90;;;;;;5051890;28;20052;-49
2021/08/03 09:40:06;;;;;;;2.40;2.20;;;26.50;53.00;;;;;;5052981;28;20052;-37
2021/08/03 09:42:32;;;;;;;3.55;2.88;;;26.60;52.40;;;;;;5054692;28;20345;-37
2021/08/03 09:45:05;;;;;;;2.58;2.25;;;26.60;52.30;;;;;;5054690;28;20025;-49
2021/08/03 09:47:32;;;;;;;2.97;2.30;;;26.60;52.20;;;;;;5054372;28;20440;-46
2021/08/03 09:50:00;;;;;;;3.72;2.42;;;26.60;52.10;;;;;;5054606;28;20372;-38
2021/08/03 09:52:35;;;;;;;3.35;2.45;;;26.60;52.30;;;;;;5054504;28;20039;-37
2021/08/03 09:55:12;;;;;;;3.13;2.63;;;26.60;51.90;;;;;;5055031;28;20053;-37
2021/08/03 09:57:40;;;;;;;4.47;3.83;;;26.60;51.70;;;;;;5054033;28;20079;-48
2021/08/03 10:00:35;;;;;;;21.92;6.05;;;26.70;51.80;;;;;;5054634;28;20029;-37
2021/08/03 10:03:05;;;;;;;3.25;2.53;;;26.80;51.90;;;;;;5054705;28;20040;-37
2021/08/03 10:05:31;;;;;;;2.85;2.30;;;26.80;51.90;;;;;;5054864;28;20029;-49
2021/08/03 10:07:58;;;;;;;4.53;2.55;;;26.80;52.10;;;;;;5054634;28;20051;-50
2021/08/03 10:10:24;;;;;;;3.45;2.40;;;26.80;52.00;;;;;;5054765;28;20021;-49
2021/08/03 10:12:50;;;;;;;3.13;2.40;;;26.80;51.90;;;;;;5054583;28;20428;-37
2021/08/03 10:15:16;;;;;;;3.00;2.33;;;26.90;51.10;;;;;;5056773;28;20021;-48
2021/08/03 10:17:42;;;;;;;4.68;2.90;;;26.90;50.60;;;;;;5058018;28;20041;-37
2021/08/03 10:20:11;;;;;;;3.92;3.30;;;26.90;50.70;;;;;;5058065;28;20104;-50
2021/08/03 10:23:04;;;;;;;3.85;2.42;;;27.00;50.60;;;;;;5058435;28;20039;-48
2021/08/03 10:25:39;;;;;;;3.22;1.95;;;27.00;50.50;;;;;;5057758;28;20043;-49
2021/08/03 10:28:23;;;;;;;3.35;2.30;;;27.00;49.90;;;;;;5058181;28;20088;-37
2021/08/03 10:30:49;;;;;;;2.85;2.00;;;27.10;50.50;;;;;;5058755;28;20021;-47
2021/08/03 10:33:41;;;;;;;3.60;2.17;;;27.10;49.80;;;;;;5058049;28;20431;-37
2021/08/03 10:36:07;;;;;;;4.47;3.10;;;27.20;49.60;;;;;;5058420;28;20352;-37
2021/08/03 10:38:33;;;;;;;4.40;3.92;;;27.20;49.90;;;;;;5057465;28;20151;-37
2021/08/03 10:41:00;;;;;;;14.88;8.90;;;27.30;48.80;;;;;;5058330;28;20024;-37
2021/08/03 10:43:35;;;;;;;10.88;9.13;;;27.30;49.30;;;;;;5057674;28;20172;-37
2021/08/03 10:46:07;;;;;;;10.15;8.25;;;27.40;49.60;;;;;;5057790;28;20028;-49
2021/08/03 10:48:39;;;;;;;8.50;6.75;;;27.40;49.40;;;;;;5058127;28;20065;-51
2021/08/03 10:51:16;;;;;;;3.22;2.88;;;27.50;49.10;;;;;;5058094;28;20021;-51
2021/08/03 10:54:00;;;;;;;8.23;5.72;;;27.50;49.80;;;;;;5058023;28;20087;-48
2021/08/03 10:56:27;;;;;;;4.47;3.75;;;27.50;49.80;;;;;;5057977;28;20034;-51
2021/08/03 10:59:30;;;;;;;5.22;3.70;;;27.60;49.30;;;;;;5058133;28;20029;-37
2021/08/03 11:01:57;;;;;;;8.80;7.47;;;27.60;49.10;;;;;;5057595;28;20040;-47
2021/08/03 11:04:47;;;;;;;4.25;3.50;;;27.70;49.40;;;;;;5057566;28;20017;-38
2021/08/03 11:07:24;;;;;;;;;;;27.80;49.40;;;;;;5057294;28;20044;-37
2021/08/03 11:09:51;;;;;;;21.42;19.13;;;27.80;49.80;;;;;;5057769;28;19954;-37
2021/08/03 11:12:40;;;;;;;5.18;3.08;;;27.90;49.60;;;;;;5057872;28;20033;-38
2021/08/03 11:15:38;;;;;;;19.20;15.70;;;28.10;48.80;;;;;;5057529;28;20025;-37
2021/08/03 11:18:10;;;;;;;12.27;10.20;;;28.20;49.00;;;;;;5055985;28;20047;-37
2021/08/03 11:20:36;;;;;;;4.70;3.45;;;28.30;48.40;;;;;;5057384;28;20310;-37
2021/08/03 11:23:16;;;;;;;6.68;5.05;;;28.40;47.70;;;;;;5057346;28;20029;-37
2021/08/03 11:25:44;;;;;;;3.83;3.13;;;28.50;48.60;;;;;;5056301;28;20329;-37
2021/08/03 11:28:18;;;;;;;2.40;2.20;;;28.60;47.60;;;;;;5057150;28;20044;-49
2021/08/03 11:30:46;;;;;;;8.98;2.95;;;28.70;47.10;;;;;;5057025;28;20025;-37
2021/08/03 11:33:14;;;;;;;4.85;3.50;;;28.80;47.30;;;;;;5057076;28;20055;-37
2021/08/03 11:35:40;;;;;;;3.33;2.17;;;28.90;47.30;;;;;;5057085;28;20417;-37
2021/08/03 11:38:09;;;;;;;3.92;2.67;;;29.10;46.80;;;;;;5057298;28;20033;-37
2021/08/03 11:40:36;;;;;;;3.20;2.47;;;29.10;47.00;;;;;;5057124;28;20116;-37
2021/08/03 11:43:03;;;;;;;2.38;2.17;;;29.30;46.80;;;;;;5057005;28;20039;-37
2021/08/03 11:45:29;;;;;;;2.50;2.30;;;29.30;46.70;;;;;;5056689;28;20397;-37
2021/08/03 11:47:58;;;;;;;5.57;2.90;;;29.40;46.00;;;;;;5057188;28;20116;-38
2021/08/03 11:50:30;;;;;;;2.97;2.45;;;29.60;46.20;;;;;;5233388;22;20054;-41
2021/08/03 11:53:14;;;;;;;7.15;3.17;;;29.70;45.60;;;;;;5012295;28;20495;-41
2021/08/03 11:55:48;;;;;;;3.05;2.60;;;29.80;45.30;;;;;;5016803;28;20029;-36
2021/08/03 11:58:22;;;;;;;6.07;4.38;;;29.80;45.50;;;;;;5016503;28;20317;-42
2021/08/03 12:00:52;;;;;;;2.60;2.40;;;30.00;45.60;;;;;;5016595;28;20025;-41
2021/08/03 12:03:30;;;;;;;7.13;2.40;;;30.10;45.40;;;;;;5016554;28;20042;-34
2021/08/03 12:05:58;;;;;;;2.42;2.22;;;30.30;45.10;;;;;;5016624;28;20022;-41
2021/08/03 12:08:32;;;;;;;2.28;2.08;;;30.40;44.70;;;;;;5015955;28;20428;-42
2021/08/03 12:10:58;;;;;;;3.67;2.92;;;30.50;44.10;;;;;;5016631;28;20025;-43
2021/08/03 12:13:29;;;;;;;3.15;2.58;;;30.60;44.20;;;;;;5016061;28;20113;-43
2021/08/03 12:15:56;;;;;;;7.78;3.95;;;30.80;43.50;;;;;;5016322;28;20037;-36
2021/08/03 12:18:22;;;;;;;3.55;3.25;;;30.90;43.70;;;;;;5016265;28;20120;-36
2021/08/03 12:20:57;;;;;;;5.32;4.82;;;31.00;43.10;;;;;;5016517;28;20176;-36
2021/08/03 12:23:23;;;;;;;3.58;2.72;;;31.20;43.10;;;;;;5016160;28;20041;-43
2021/08/03 12:25:53;;;;;;;6.35;3.75;;;31.30;43.20;;;;;;5016690;28;20112;-37
2021/08/03 12:29:00;;;;;;;6.57;5.63;;;31.40;43.00;;;;;;5016073;28;20113;-43
2021/08/03 12:31:35;;;;;;;7.70;6.18;;;31.50;42.10;;;;;;4993541;28;20049;-43
2021/08/03 12:34:16;;;;;;;5.82;4.45;;;31.60;42.50;;;;;;5015951;28;20030;-43
2021/08/03 12:36:42;;;;;;;5.00;3.03;;;31.70;42.90;;;;;;5016199;28;20444;-43
2021/08/03 12:39:18;;;;;;;7.38;5.97;;;31.80;42.40;;;;;;5015785;28;20042;-36
2021/08/03 12:42:00;;;;;;;5.78;3.95;;;31.90;42.00;;;;;;5028034;28;20083;-37
2021/08/03 12:44:27;;;;;;;3.75;2.30;;;31.90;41.40;;;;;;5035859;28;20069;-44
2021/08/03 12:46:53;;;;;;;4.97;3.53;;;32.00;41.20;;;;;;5035675;28;20086;-37
2021/08/03 12:49:40;;;;;;;4.78;2.53;;;32.10;41.60;;;;;;5035879;28;20124;-36
2021/08/03 12:52:11;;;;;;;3.35;2.40;;;32.20;40.90;;;;;;5034718;28;20130;-43
2021/08/03 12:54:37;;;;;;;4.50;3.47;;;32.30;40.90;;;;;;5035745;28;20021;-43
2021/08/03 12:57:03;;;;;;;5.63;3.00;;;32.40;41.00;;;;;;5035055;28;20505;-36
2021/08/03 12:59:38;;;;;;;2.60;2.40;;;32.40;40.40;;;;;;5035567;28;20025;-38